createdAt,value
2023-02-09T00:03:39.600Z,78.54
2023-02-09T00:07:34.466Z,78.66
2023-02-09T00:11:45.488Z,78.66
2023-02-09T00:15:08.320Z,78.46
2023-02-09T00:18:46.428Z,78.54
2023-02-09T00:22:23.021Z,78.72
2023-02-09T00:26:19.614Z,79.17
2023-02-09T00:29:44.064Z,78.85
2023-02-09T00:33:21.232Z,78.76
2023-02-09T00:36:58.156Z,78.91
2023-02-09T00:40:55.075Z,78.86
2023-02-09T00:44:17.122Z,79.07
2023-02-09T00:47:55.294Z,79.12
2023-02-09T00:51:33.310Z,78.86
2023-02-09T00:55:10.320Z,78.85
2023-02-09T00:59:06.636Z,78.89
2023-02-09T01:02:49.438Z,79.01
2023-02-09T01:06:12.005Z,79.42
2023-02-09T01:10:10.027Z,79.56
2023-02-09T01:13:32.452Z,79.35
2023-02-09T01:17:10.449Z,79.36
2023-02-09T01:20:47.934Z,79.23
2023-02-09T01:24:25.648Z,79.25
2023-02-09T01:28:03.246Z,79.37
2023-02-09T01:31:41.637Z,79.49
2023-02-09T01:35:18.543Z,79.40
2023-02-09T01:39:16.230Z,79.24
2023-02-09T01:42:40.689Z,79.27
2023-02-09T01:46:18.790Z,79.55
2023-02-09T01:50:16.656Z,79.44
2023-02-09T01:53:39.438Z,79.64
2023-02-09T01:57:29.496Z,79.69
2023-02-09T02:00:54.855Z,79.37
2023-02-09T02:04:35.018Z,79.45
2023-02-09T02:08:53.258Z,79.48
2023-02-09T02:12:15.784Z,79.80
2023-02-09T02:16:38.509Z,79.87
2023-02-09T02:20:22.684Z,79.78
2023-02-09T02:24:04.641Z,79.27
2023-02-09T02:27:40.515Z,79.44
2023-02-09T02:31:29.216Z,79.37
2023-02-09T02:35:15.620Z,79.65
2023-02-09T02:39:24.288Z,80.06
2023-02-09T02:43:05.701Z,79.54
2023-02-09T02:46:38.959Z,79.54
2023-02-09T02:50:13.918Z,79.48
2023-02-09T02:53:51.540Z,79.65
2023-02-09T02:57:28.681Z,79.58
2023-02-09T03:01:02.881Z,79.94
2023-02-09T03:04:58.293Z,80.09
2023-02-09T03:08:51.370Z,79.91
2023-02-09T03:12:49.617Z,79.91
2023-02-09T03:16:17.806Z,80.01
2023-02-09T03:20:22.358Z,80.10
2023-02-09T03:24:00.242Z,79.76
2023-02-09T03:27:34.025Z,79.91
2023-02-09T03:31:02.689Z,79.90
2023-02-09T03:34:38.886Z,80.05
2023-02-09T03:38:16.785Z,80.06
2023-02-09T03:41:53.910Z,80.21
2023-02-09T03:45:52.978Z,79.98
2023-02-09T03:49:15.971Z,80.15
2023-02-09T03:52:53.188Z,80.01
2023-02-09T03:56:31.346Z,80.27
2023-02-09T04:00:27.450Z,80.42
2023-02-09T04:04:10.729Z,80.21
2023-02-09T04:07:34.266Z,80.26
2023-02-09T04:11:11.020Z,80.09
2023-02-09T04:15:07.751Z,79.79
2023-02-09T04:18:30.171Z,80.52
2023-02-09T04:22:08.280Z,80.58
2023-02-09T04:26:04.878Z,80.62
2023-02-09T04:29:46.414Z,80.66
2023-02-09T04:33:29.655Z,80.37
2023-02-09T04:37:13.149Z,80.46
2023-02-09T04:40:55.425Z,80.56
2023-02-09T04:44:18.032Z,80.64
2023-02-09T04:48:19.343Z,80.58
2023-02-09T04:52:00.758Z,80.60
2023-02-09T04:55:23.643Z,80.43
2023-02-09T04:59:34.976Z,80.30
2023-02-09T05:02:58.477Z,80.65
2023-02-09T05:06:35.810Z,80.61
2023-02-09T05:10:12.797Z,80.88
2023-02-09T05:14:09.532Z,80.24
2023-02-09T05:17:33.215Z,80.53
2023-02-09T05:21:10.470Z,80.52
2023-02-09T05:25:06.524Z,80.74
2023-02-09T05:28:30.043Z,80.48
2023-02-09T05:32:07.514Z,80.54
2023-02-09T05:35:45.290Z,80.70
2023-02-09T05:39:22.738Z,80.60
2023-02-09T05:43:03.858Z,80.78
2023-02-09T05:46:38.551Z,80.73
2023-02-09T05:50:16.573Z,80.72
2023-02-09T05:54:13.192Z,80.75
2023-02-09T05:57:54.365Z,80.63
2023-02-09T06:01:17.238Z,80.80
2023-02-09T06:05:18.258Z,80.66
2023-02-09T06:08:44.703Z,80.84
2023-02-09T06:12:27.983Z,80.86
2023-02-09T06:16:16.370Z,81.21
2023-02-09T06:19:57.642Z,81.06
2023-02-09T06:23:40.594Z,80.90
2023-02-09T06:27:04.019Z,81.02
2023-02-09T06:31:00.244Z,81.34
2023-02-09T06:34:25.577Z,81.29
2023-02-09T06:38:01.859Z,81.36
2023-02-09T06:41:58.571Z,81.21
2023-02-09T06:45:21.165Z,81.38
2023-02-09T06:49:18.365Z,81.32
2023-02-09T06:52:59.839Z,81.42
2023-02-09T06:56:26.373Z,81.50
2023-02-09T06:59:59.893Z,81.50
2023-02-09T07:03:38.678Z,81.58
2023-02-09T07:07:16.621Z,81.59
2023-02-09T07:10:53.413Z,81.76
2023-02-09T07:14:49.634Z,81.98
2023-02-09T07:18:12.529Z,81.83
2023-02-09T07:21:49.918Z,81.82
2023-02-09T07:25:28.102Z,82.00
2023-02-09T07:29:25.357Z,82.29
2023-02-09T07:33:07.606Z,82.80
2023-02-09T07:36:48.485Z,83.41
2023-02-09T07:40:14.982Z,83.38
2023-02-09T07:44:12.966Z,83.75
2023-02-09T07:47:36.134Z,83.54
2023-02-09T07:51:34.379Z,83.72
2023-02-09T07:54:56.905Z,83.78
2023-02-09T07:58:34.468Z,83.70
2023-02-09T08:02:21.736Z,83.86
2023-02-09T08:05:58.448Z,83.83
2023-02-09T08:09:46.814Z,84.09
2023-02-09T08:13:33.430Z,84.06
2023-02-09T08:17:19.987Z,84.29
2023-02-09T08:20:44.890Z,84.65
2023-02-09T08:24:40.269Z,84.58
2023-02-09T08:28:31.840Z,84.50
2023-02-09T08:32:19.820Z,84.53
2023-02-09T08:35:42.672Z,84.74
2023-02-09T08:39:19.673Z,84.83
2023-02-09T08:42:57.708Z,84.71
2023-02-09T08:46:39.703Z,84.81
2023-02-09T08:50:13.482Z,84.62
2023-02-09T08:54:09.434Z,84.54
2023-02-09T08:57:43.157Z,84.44
2023-02-09T09:01:28.505Z,84.51
2023-02-09T09:04:52.233Z,84.19
2023-02-09T09:08:47.792Z,84.05
2023-02-09T09:12:31.035Z,83.61
2023-02-09T09:16:20.234Z,83.81
2023-02-09T09:19:43.893Z,83.87
2023-02-09T09:23:21.676Z,83.80
2023-02-09T09:27:02.597Z,83.28
2023-02-09T09:30:37.490Z,82.70
2023-02-09T09:34:14.463Z,82.75
2023-02-09T09:37:51.992Z,82.04
2023-02-09T09:41:36.469Z,81.80
2023-02-09T09:45:29.257Z,82.02
2023-02-09T09:49:24.411Z,81.43
2023-02-09T09:52:56.608Z,81.23
2023-02-09T09:56:27.213Z,80.94
2023-02-09T10:00:27.421Z,80.69
2023-02-09T10:04:16.519Z,79.99
2023-02-09T10:07:43.287Z,79.18
2023-02-09T10:11:52.496Z,79.34
2023-02-09T10:15:33.073Z,79.71
2023-02-09T10:19:01.019Z,78.47
2023-02-09T10:22:52.555Z,79.03
2023-02-09T10:26:37.515Z,77.55
2023-02-09T10:30:18.895Z,76.92
2023-02-09T10:33:44.768Z,76.95
2023-02-09T10:37:39.133Z,76.72
2023-02-09T10:41:01.658Z,75.51
2023-02-09T10:45:07.331Z,74.44
2023-02-09T10:48:43.628Z,74.80
2023-02-09T10:52:32.558Z,74.82
2023-02-09T10:56:23.302Z,73.60
2023-02-09T11:00:14.449Z,73.99
2023-02-09T11:03:58.778Z,73.48
2023-02-09T11:07:41.295Z,72.36
2023-02-09T11:11:30.612Z,72.41
2023-02-09T11:14:53.130Z,70.95
2023-02-09T11:19:03.242Z,70.60
2023-02-09T11:22:46.363Z,70.33
2023-02-09T11:26:41.974Z,68.72
2023-02-09T11:30:33.343Z,67.82
2023-02-09T11:34:03.698Z,66.86
2023-02-09T11:37:52.439Z,65.65
2023-02-09T11:42:08.191Z,66.67
2023-02-09T11:45:49.837Z,65.05
2023-02-09T11:49:21.396Z,64.59
2023-02-09T11:53:34.382Z,63.01
2023-02-09T11:57:26.159Z,63.29
2023-02-09T12:01:46.927Z,62.35
2023-02-09T12:05:14.327Z,60.34
2023-02-09T12:08:59.539Z,60.91
2023-02-09T12:12:45.968Z,61.06
2023-02-09T12:16:34.377Z,60.58
2023-02-09T12:20:48.443Z,60.07
2023-02-09T12:24:38.623Z,59.87
2023-02-09T12:28:32.894Z,58.68
2023-02-09T12:32:04.863Z,56.83
2023-02-09T12:36:15.338Z,57.15
2023-02-09T12:40:05.628Z,58.21
2023-02-09T12:43:31.040Z,56.88
2023-02-09T12:48:09.351Z,56.18
2023-02-09T12:51:50.258Z,55.48
2023-02-09T12:55:36.355Z,55.96
2023-02-09T12:59:15.502Z,53.94
2023-02-09T13:03:11.149Z,55.46
2023-02-09T13:06:52.688Z,54.61
2023-02-09T13:11:04.266Z,54.90
2023-02-09T13:14:27.232Z,55.38
2023-02-09T13:18:20.585Z,54.39
2023-02-09T13:22:31.723Z,54.64
2023-02-09T13:26:01.770Z,54.15
2023-02-09T13:29:32.740Z,53.42
2023-02-09T13:33:47.861Z,54.76
2023-02-09T13:38:27.557Z,53.16
2023-02-09T13:41:53.690Z,53.68
2023-02-09T13:45:28.525Z,52.22
2023-02-09T13:49:15.792Z,52.78
2023-02-09T13:52:43.812Z,53.83
2023-02-09T13:56:21.460Z,52.51
2023-02-09T14:00:23.320Z,52.50
2023-02-09T14:04:15.430Z,53.72
2023-02-09T14:07:38.739Z,52.38
2023-02-09T14:11:42.648Z,53.14
2023-02-09T14:15:25.043Z,51.31
2023-02-09T14:18:55.493Z,50.86
2023-02-09T14:22:31.760Z,51.45
2023-02-09T14:26:22.425Z,50.07
2023-02-09T14:30:17.437Z,52.15
2023-02-09T14:34:00.233Z,51.03
2023-02-09T14:37:22.741Z,51.32
2023-02-09T14:45:13.278Z,50.48
2023-02-09T14:48:36.357Z,51.09
2023-02-09T14:52:34.004Z,50.53
2023-02-09T14:55:58.824Z,50.14
2023-02-09T14:59:57.538Z,50.82
2023-02-09T15:03:38.825Z,51.88
2023-02-09T15:07:29.272Z,51.23
2023-02-09T15:11:42.699Z,51.64
2023-02-09T15:15:25.948Z,53.04
2023-02-09T15:18:48.445Z,53.12
2023-02-09T15:22:26.554Z,51.82
2023-02-09T15:26:04.609Z,53.79
2023-02-09T15:29:41.729Z,53.87
2023-02-09T15:33:21.554Z,54.41
2023-02-09T15:37:28.862Z,54.68
2023-02-09T15:41:09.681Z,55.35
2023-02-09T15:44:51.028Z,54.91
2023-02-09T15:48:36.170Z,55.42
2023-02-09T15:52:17.779Z,55.83
2023-02-09T15:55:44.275Z,55.71
2023-02-09T15:59:22.293Z,56.10
2023-02-09T16:03:17.765Z,56.53
2023-02-09T16:07:00.690Z,57.00
2023-02-09T16:10:29.238Z,57.19
2023-02-09T16:14:24.872Z,57.36
2023-02-09T16:17:47.080Z,57.51
2023-02-09T16:21:49.810Z,57.67
2023-02-09T16:25:31.636Z,57.85
2023-02-09T16:29:14.741Z,58.20
2023-02-09T16:32:56.540Z,58.28
2023-02-09T16:36:22.268Z,58.46
2023-02-09T16:40:33.326Z,58.55
2023-02-09T16:44:20.133Z,58.62
2023-02-09T16:48:01.910Z,58.51
2023-02-09T16:51:42.923Z,59.06
2023-02-09T16:55:22.366Z,58.96
2023-02-09T16:59:04.460Z,59.51
2023-02-09T17:02:56.588Z,59.75
2023-02-09T17:06:22.902Z,59.89
2023-02-09T17:09:57.567Z,59.87
2023-02-09T17:13:53.902Z,60.09
2023-02-09T17:17:21.008Z,60.11
2023-02-09T17:21:21.746Z,60.25
2023-02-09T17:25:03.042Z,60.29
2023-02-09T17:28:44.116Z,60.43
2023-02-09T17:32:10.860Z,60.55
2023-02-09T17:40:05.687Z,60.67
2023-02-09T17:43:30.222Z,61.02
2023-02-09T17:47:05.388Z,60.87
2023-02-09T17:51:03.991Z,61.04
2023-02-09T17:54:46.687Z,61.10
2023-02-09T17:58:27.702Z,61.15
2023-02-09T18:02:14.132Z,61.30
2023-02-09T18:05:38.569Z,61.18
2023-02-09T18:09:32.924Z,61.44
2023-02-09T18:13:19.917Z,61.64
2023-02-09T18:17:01.708Z,61.75
2023-02-09T18:20:43.046Z,61.94
2023-02-09T18:24:28.182Z,61.78
2023-02-09T18:28:10.780Z,62.12
2023-02-09T18:31:52.346Z,61.97
2023-02-09T18:35:42.265Z,62.13
2023-02-09T18:39:05.793Z,62.05
2023-02-09T18:42:42.664Z,62.30
2023-02-09T18:46:41.346Z,62.39
2023-02-09T18:50:06.400Z,62.40
2023-02-09T18:53:41.250Z,62.41
2023-02-09T18:57:39.514Z,62.38
2023-02-09T19:01:23.852Z,62.48
2023-02-09T19:04:46.043Z,62.32
2023-02-09T19:08:26.332Z,62.65
2023-02-09T19:12:22.353Z,62.60
2023-02-09T19:16:11.156Z,62.49
2023-02-09T19:19:58.303Z,62.63
2023-02-09T19:23:39.993Z,62.84
2023-02-09T19:27:06.711Z,62.83
2023-02-09T19:30:44.000Z,62.95
2023-02-09T19:34:39.253Z,62.92
2023-02-09T19:38:20.531Z,63.11
2023-02-09T19:41:45.155Z,63.13
2023-02-09T19:45:40.977Z,63.42
2023-02-09T19:49:22.427Z,63.37
2023-02-09T19:53:07.132Z,63.46
2023-02-09T19:56:29.161Z,63.43
2023-02-09T20:00:07.412Z,63.44
2023-02-09T20:04:04.539Z,63.71
2023-02-09T20:07:27.468Z,63.85
2023-02-09T20:11:24.258Z,63.83
2023-02-09T20:14:46.180Z,64.03
2023-02-09T20:18:25.542Z,64.30
2023-02-09T20:22:20.496Z,63.92
2023-02-09T20:26:07.712Z,64.00
2023-02-09T20:29:29.761Z,64.40
2023-02-09T20:33:10.304Z,64.34
2023-02-09T20:37:04.053Z,64.23
2023-02-09T20:40:45.273Z,64.14
2023-02-09T20:44:45.231Z,64.20
2023-02-09T20:48:08.324Z,64.22
2023-02-09T20:52:04.746Z,63.87
2023-02-09T20:55:29.773Z,64.06
2023-02-09T20:59:25.405Z,64.38
2023-02-09T21:02:49.486Z,64.22
2023-02-09T21:06:45.040Z,63.99
2023-02-09T21:10:29.329Z,64.37
2023-02-09T21:14:41.251Z,64.12
2023-02-09T21:18:06.762Z,64.46
2023-02-09T21:22:01.691Z,64.52
2023-02-09T21:25:43.608Z,64.68
2023-02-09T21:29:24.737Z,64.75
2023-02-09T21:32:47.387Z,64.62
2023-02-09T21:36:43.962Z,64.69
2023-02-09T21:40:25.481Z,64.41
2023-02-09T21:43:50.291Z,64.22
2023-02-09T21:47:44.230Z,64.21
2023-02-09T21:51:06.816Z,64.27
2023-02-09T21:55:05.517Z,64.04
2023-02-09T21:58:46.703Z,64.19
2023-02-09T22:02:14.889Z,64.32
2023-02-09T22:05:55.741Z,64.25
2023-02-09T22:09:25.257Z,64.07
2023-02-09T22:13:08.433Z,64.12
2023-02-09T22:16:58.843Z,64.09
2023-02-09T22:20:21.196Z,64.19
2023-02-09T22:24:18.514Z,64.16
2023-02-09T22:27:42.239Z,64.28
2023-02-09T22:31:21.703Z,64.19
2023-02-09T22:34:57.820Z,64.17
2023-02-09T22:38:35.943Z,64.25
2023-02-09T22:42:33.065Z,64.32
2023-02-09T22:45:58.278Z,64.43
2023-02-09T22:49:34.604Z,64.32
2023-02-09T22:53:12.054Z,64.67
2023-02-09T22:56:49.503Z,64.59
2023-02-09T23:00:46.402Z,64.76
2023-02-09T23:04:31.179Z,64.78
2023-02-09T23:07:56.410Z,64.94
2023-02-09T23:11:31.646Z,64.84
2023-02-09T23:15:27.881Z,64.90
2023-02-09T23:19:12.278Z,65.20
2023-02-09T23:23:01.249Z,65.20
2023-02-09T23:26:26.019Z,65.33
2023-02-09T23:30:22.327Z,65.51
2023-02-09T23:34:04.715Z,65.25
2023-02-09T23:37:37.165Z,65.48
2023-02-09T23:41:11.327Z,65.49
2023-02-09T23:45:00.909Z,66.03
2023-02-09T23:48:25.284Z,66.29
2023-02-09T23:52:05.036Z,66.05
2023-02-09T23:55:42.092Z,65.85
2023-02-09T23:59:18.880Z,65.53
